Time;durP1;ratioP1;P1;durP2;ratioP2;P2;SDS_P1;SDS_P2;PMS_P1;PMS_P2;Temp;Humidity;BMP_temperature;BMP_pressure;BME280_temperature;BME280_humidity;BME280_pressure;Samples;Min_cycle;Max_cycle;Signal;HPM_P1;HPM_P2
2022/12/31 00:01:42;;;;;;;12.77;9.40;;;;;;;6.93;100.00;99280.56;5072568;28;20180;-60
2022/12/31 00:04:08;;;;;;;16.42;10.15;;;;;;;6.95;100.00;99306.22;5072346;28;20695;-60
2022/12/31 00:06:34;;;;;;;16.10;10.43;;;;;;;6.80;100.00;99281.09;5072248;28;20217;-60
2022/12/31 00:09:03;;;;;;;12.15;9.02;;;;;;;6.66;100.00;99258.53;5072813;28;20185;-60
2022/12/31 00:11:29;;;;;;;7.32;5.05;;;;;;;6.65;92.60;99261.97;5072226;28;20245;-60
2022/12/31 00:13:56;;;;;;;4.50;4.00;;;;;;;7.00;89.46;99310.28;5072368;28;20197;-60
2022/12/31 00:16:30;;;;;;;4.72;3.88;;;;;;;6.95;88.87;99265.94;5072680;28;20185;-60
2022/12/31 00:18:58;;;;;;;4.30;3.90;;;;;;;6.99;87.81;99269.22;5073970;28;20678;-60
2022/12/31 00:21:24;;;;;;;6.55;5.43;;;;;;;7.31;88.30;99322.75;5074346;28;20700;-60
2022/12/31 00:23:49;;;;;;;5.55;4.60;;;;;;;7.00;89.43;99269.13;5074325;28;20266;-60
2022/12/31 00:26:18;;;;;;;4.15;3.78;;;;;;;7.22;87.99;99290.50;5075010;28;20251;-60
2022/12/31 00:28:43;;;;;;;7.47;6.70;;;;;;;7.02;91.94;99264.78;5074517;28;20185;-60
2022/12/31 00:31:11;;;;;;;9.32;7.38;;;;;;;7.03;93.43;99273.31;5073847;28;20193;-60
2022/12/31 00:33:37;;;;;;;15.40;10.57;;;;;;;6.63;98.31;99235.50;5074085;28;20189;-60
2022/12/31 00:36:14;;;;;;;10.68;6.43;;;;;;;6.53;95.02;99228.22;5074099;28;20177;-60
2022/12/31 00:38:42;;;;;;;4.25;3.92;;;;;;;6.92;88.48;99280.63;5074687;28;20169;-60
2022/12/31 00:41:08;;;;;;;4.05;3.75;;;;;;;7.20;87.12;99323.22;5074041;28;20290;-60
2022/12/31 00:43:36;;;;;;;3.88;3.38;;;;;;;6.70;86.64;99226.63;5074495;28;20221;-60
2022/12/31 00:46:03;;;;;;;4.13;3.42;;;;;;;6.97;86.58;99274.41;5073871;28;20193;-60
2022/12/31 00:48:29;;;;;;;4.03;3.40;;;;;;;7.23;86.08;99312.78;5073845;28;20191;-60
2022/12/31 00:50:55;;;;;;;4.40;4.00;;;;;;;7.04;86.42;99278.41;5073875;28;20252;-60
2022/12/31 00:53:21;;;;;;;3.53;3.15;;;;;;;7.37;85.36;99325.94;5073777;28;20227;-60
2022/12/31 00:55:47;;;;;;;4.65;3.60;;;;;;;7.36;85.64;99339.72;5073995;28;20173;-60
2022/12/31 00:58:12;;;;;;;3.45;2.83;;;;;;;7.08;85.30;99277.38;5073678;28;20563;-60
2022/12/31 01:00:38;;;;;;;3.42;3.13;;;;;;;7.09;85.15;99284.19;5073682;28;20256;-60
2022/12/31 01:03:03;;;;;;;3.50;3.20;;;;;;;6.86;85.31;99235.41;5073558;28;20181;-60
2022/12/31 01:05:30;;;;;;;8.63;4.63;;;;;;;6.94;86.18;99264.22;5073413;28;20188;-60
2022/12/31 01:07:55;;;;;;;4.85;3.97;;;;;;;7.18;86.40;99294.09;5074327;28;20223;-60
2022/12/31 01:13:05;;;;;;;6.70;5.22;;;;;;;7.23;86.69;99293.94;5050959;28;20168;-60
2022/12/31 01:15:37;;;;;;;11.05;8.95;;;;;;;7.14;92.96;99284.00;5051229;28;20273;-60
2022/12/31 01:18:04;;;;;;;15.20;9.80;;;;;;;7.41;93.91;99337.75;5050950;28;20272;-60
2022/12/31 01:20:30;;;;;;;11.10;7.30;;;;;;;7.26;94.10;99317.81;5051150;28;20210;-60
2022/12/31 01:22:55;;;;;;;11.60;7.95;;;;;;;7.04;95.76;99293.84;5050940;28;20216;-60
2022/12/31 01:25:20;;;;;;;13.90;9.38;;;;;;;7.34;97.50;99338.91;5051061;28;20588;-60
2022/12/31 01:27:46;;;;;;;16.58;10.18;;;;;;;7.26;98.48;99328.09;5051018;28;20703;-60
2022/12/31 01:30:11;;;;;;;13.30;8.88;;;;;;;6.99;99.27;99270.03;5050829;28;20232;-60
2022/12/31 01:32:37;;;;;;;6.85;5.82;;;;;;;7.29;92.26;99320.25;5050796;28;20194;-60
2022/12/31 01:35:03;;;;;;;3.60;3.28;;;;;;;6.99;88.47;99282.88;5050622;28;20273;-60
2022/12/31 01:37:28;;;;;;;3.60;3.30;;;;;;;7.15;86.30;99289.09;5051381;28;20209;-60
2022/12/31 01:39:53;;;;;;;4.38;3.53;;;;;;;7.27;85.76;99316.91;5050523;28;20178;-60
2022/12/31 01:42:19;;;;;;;5.10;4.10;;;;;;;7.35;86.39;99343.16;5070772;28;20196;-61
2022/12/31 01:44:49;;;;;;;16.17;10.23;;;;;;;7.32;89.90;99322.72;5073569;28;20175;-60
2022/12/31 01:47:19;;;;;;;8.20;7.05;;;;;;;7.39;93.82;99331.03;5073266;28;20211;-60
2022/12/31 01:49:55;;;;;;;10.25;8.73;;;;;;;7.28;94.06;99316.00;5072777;28;20162;-60
2022/12/31 01:52:21;;;;;;;14.23;9.27;;;;;;;7.52;92.63;99351.03;5072688;28;20636;-60
2022/12/31 01:54:51;;;;;;;16.40;11.18;;;;;;;7.40;94.21;99333.50;5072351;28;20185;-60
2022/12/31 01:57:17;;;;;;;11.48;7.72;;;;;;;6.96;93.83;99236.72;5072721;28;20177;-60
2022/12/31 01:59:44;;;;;;;4.72;4.32;;;;;;;7.15;89.38;99278.81;5072911;28;20560;-60
2022/12/31 02:02:11;;;;;;;3.22;2.92;;;;;;;7.02;86.64;99277.63;5073131;28;20169;-60
2022/12/31 02:04:36;;;;;;;6.60;5.88;;;;;;;6.76;88.41;99226.38;5072519;28;20229;-60
2022/12/31 02:07:05;;;;;;;11.23;8.10;;;;;;;7.37;91.18;99319.94;5072771;28;20204;-60
2022/12/31 02:09:33;;;;;;;10.77;8.25;;;;;;;7.23;94.24;99320.50;5072442;28;20181;-60
2022/12/31 02:11:59;;;;;;;15.55;10.90;;;;;;;7.10;96.06;99315.94;5072398;28;20181;-60
2022/12/31 02:14:31;;;;;;;19.75;12.88;;;;;;;6.50;99.32;99231.75;5072405;28;20183;-60
2022/12/31 02:17:18;;;;;;;19.05;12.23;;;;;;;6.99;100.00;99324.06;5072386;28;20691;-61
2022/12/31 02:20:18;;;;;;;18.23;12.27;;;;;;;7.01;100.00;99327.44;5072647;28;20188;-60
2022/12/31 02:23:02;;;;;;;10.48;7.97;;;;;;;7.14;100.00;99330.31;5072097;28;20572;-60
2022/12/31 02:25:48;;;;;;;16.52;11.65;;;;;;;7.12;100.00;99332.13;5072460;28;20275;-60
2022/12/31 02:28:25;;;;;;;21.55;13.82;;;;;;;6.98;100.00;99345.53;5072279;28;20180;-60
2022/12/31 02:30:59;;;;;;;21.33;14.63;;;;;;;6.63;100.00;99279.22;5072107;28;20169;-60
2022/12/31 02:33:34;;;;;;;20.70;13.25;;;;;;;6.92;100.00;99325.19;5072859;28;20186;-60
2022/12/31 02:36:12;;;;;;;24.08;14.18;;;;;;;6.67;100.00;99291.06;5073081;28;20532;-60
2022/12/31 02:38:43;;;;;;;19.77;14.10;;;;;;;6.65;100.00;99281.72;5072205;28;20650;-60
2022/12/31 02:41:48;;;;;;;26.92;13.63;;;;;;;6.93;100.00;99331.19;5072699;28;20195;-60
2022/12/31 02:43:58;;;;;;;18.45;13.27;;;;;;;6.86;100.00;99316.88;5071740;28;20264;-60
2022/12/31 02:46:48;;;;;;;20.85;13.20;;;;;;;7.00;100.00;99324.91;5072552;28;20292;-60
2022/12/31 02:49:29;;;;;;;20.05;13.80;;;;;;;6.71;100.00;99269.44;5072434;28;20616;-60
2022/12/31 02:52:31;;;;;;;21.15;13.00;;;;;;;7.04;100.00;99326.47;5072415;28;20165;-60
2022/12/31 02:55:08;;;;;;;26.05;14.48;;;;;;;7.00;100.00;99323.16;5072634;28;20180;-61
2022/12/31 02:57:52;;;;;;;20.40;13.73;;;;;;;6.96;100.00;99316.47;5072030;28;20195;-60
2022/12/31 03:03:04;;;;;;;19.27;13.93;;;;;;;6.83;100.00;99322.97;5072038;28;20179;-60
2022/12/31 03:05:36;;;;;;;22.63;14.15;;;;;;;6.07;100.00;99229.13;5071846;28;20177;-60
2022/12/31 03:08:01;;;;;;;24.10;15.35;;;;;;;6.39;100.00;99259.59;5072476;28;20180;-60
2022/12/31 03:10:27;;;;;;;23.40;14.00;;;;;;;6.41;100.00;99273.22;5071877;28;20173;-60
2022/12/31 03:12:52;;;;;;;23.00;15.38;;;;;;;6.24;100.00;99270.44;5072397;28;20181;-60
2022/12/31 03:15:23;;;;;;;27.50;15.55;;;;;;;6.53;100.00;99329.28;5071854;28;20662;-60
2022/12/31 03:17:58;;;;;;;21.33;15.10;;;;;;;6.63;100.00;99338.34;5071792;28;20185;-60
2022/12/31 03:23:15;;;;;;;24.27;15.88;;;;;;;6.60;100.00;99333.34;5071841;28;20180;-60
2022/12/31 03:25:42;;;;;;;26.60;15.98;;;;;;;6.69;100.00;99350.97;5071964;28;20181;-60
2022/12/31 03:28:14;;;;;;;29.77;17.40;;;;;;;6.74;100.00;99368.78;5071395;28;20673;-60
2022/12/31 03:30:41;;;;;;;27.63;17.00;;;;;;;6.42;100.00;99325.47;5072090;28;20552;-60
2022/12/31 03:33:07;;;;;;;24.27;17.63;;;;;;;6.49;100.00;99348.31;5071777;28;20233;-60
2022/12/31 03:35:35;;;;;;;28.58;16.98;;;;;;;6.40;100.00;99322.94;5071970;28;20192;-60
2022/12/31 03:38:02;;;;;;;27.95;16.95;;;;;;;6.67;100.00;99360.50;5075461;28;20187;-60
2022/12/31 03:40:29;;;;;;;27.40;15.77;;;;;;;6.47;100.00;99321.00;5075143;28;20635;-60
2022/12/31 03:42:55;;;;;;;21.50;15.25;;;;;;;6.56;100.00;99349.75;5075132;28;20639;-60
2022/12/31 03:45:21;;;;;;;24.48;15.70;;;;;;;6.57;100.00;99360.88;5075070;28;20179;-60
2022/12/31 03:47:47;;;;;;;23.58;15.57;;;;;;;6.56;100.00;99365.19;5075269;28;20197;-60
2022/12/31 03:50:15;;;;;;;23.13;15.13;;;;;;;6.38;100.00;99358.16;5075048;28;20594;-60
2022/12/31 03:52:41;;;;;;;22.40;14.82;;;;;;;6.42;100.00;99358.88;5074973;28;20181;-60
2022/12/31 03:55:08;;;;;;;21.60;14.77;;;;;;;6.27;100.00;99334.59;5074930;28;20231;-60
2022/12/31 03:57:33;;;;;;;22.88;15.80;;;;;;;6.14;100.00;99319.66;5075148;28;20185;-60
2022/12/31 03:59:59;;;;;;;28.20;16.42;;;;;;;6.35;100.00;99360.00;5075097;28;20173;-60
2022/12/31 04:02:25;;;;;;;23.58;16.10;;;;;;;6.16;100.00;99334.13;5074734;28;20334;-60
2022/12/31 04:04:50;;;;;;;23.80;15.50;;;;;;;6.45;100.00;99382.75;5074405;28;20170;-60
2022/12/31 04:07:16;;;;;;;27.38;16.45;;;;;;;5.99;100.00;99322.78;5074944;28;20197;-60
2022/12/31 04:09:41;;;;;;;26.45;16.70;;;;;;;5.95;100.00;99326.34;5074918;28;20567;-60
2022/12/31 04:12:06;;;;;;;27.33;16.90;;;;;;;6.23;100.00;99389.53;5074573;28;20177;-60
2022/12/31 04:14:32;;;;;;;26.05;16.80;;;;;;;5.87;100.00;99316.34;5075075;28;20311;-60
2022/12/31 04:16:57;;;;;;;26.55;17.98;;;;;;;4.98;100.00;99208.25;5072261;28;20651;-60
2022/12/31 04:19:23;;;;;;;25.52;15.90;;;;;;;5.61;100.00;99311.28;5072394;28;20203;-60
2022/12/31 04:21:48;;;;;;;24.63;16.27;;;;;;;5.60;100.00;99308.75;5072292;28;20251;-60
2022/12/31 04:24:14;;;;;;;22.95;16.40;;;;;;;5.75;100.00;99331.31;5072035;28;20212;-60
2022/12/31 04:26:40;;;;;;;25.05;16.20;;;;;;;5.93;100.00;99357.22;5072020;28;20683;-60
2022/12/31 04:29:05;;;;;;;28.60;16.98;;;;;;;5.87;100.00;99347.16;5072475;28;20259;-60
2022/12/31 04:31:31;;;;;;;29.30;17.55;;;;;;;6.00;100.00;99357.88;5071620;28;20224;-60
2022/12/31 04:33:56;;;;;;;28.48;17.42;;;;;;;5.75;100.00;99301.34;5072385;28;20270;-60
2022/12/31 04:36:22;;;;;;;24.67;17.15;;;;;;;5.87;100.00;99316.34;5071776;28;20199;-60
2022/12/31 04:38:47;;;;;;;24.75;16.65;;;;;;;5.66;100.00;99280.28;5071784;28;20181;-60
2022/12/31 04:41:16;;;;;;;28.33;18.35;;;;;;;5.99;100.00;99351.88;5071693;28;20272;-60
2022/12/31 04:43:43;;;;;;;30.35;17.90;;;;;;;6.00;100.00;99358.69;5071809;28;20662;-60
2022/12/31 04:46:08;;;;;;;28.45;18.42;;;;;;;6.05;100.00;99354.22;5071479;28;20204;-60
2022/12/31 04:48:34;;;;;;;30.08;17.83;;;;;;;5.54;100.00;99281.53;5072472;28;20197;-60
2022/12/31 04:50:59;;;;;;;29.95;19.00;;;;;;;5.92;100.00;99344.44;5074152;28;20177;-60
2022/12/31 04:53:25;;;;;;;30.00;19.33;;;;;;;5.70;100.00;99328.91;5074630;28;20177;-60
2022/12/31 04:55:51;;;;;;;29.73;18.48;;;;;;;5.31;100.00;99281.47;5073806;28;20268;-60
2022/12/31 04:58:17;;;;;;;27.73;18.20;;;;;;;5.64;100.00;99323.97;5074277;28;20205;-60
2022/12/31 05:00:44;;;;;;;29.77;20.13;;;;;;;5.95;100.00;99367.47;5074170;28;20223;-60
2022/12/31 05:03:10;;;;;;;32.85;20.08;;;;;;;6.01;100.00;99374.94;5073837;28;20187;-60
2022/12/31 05:05:41;;;;;;;31.80;19.10;;;;;;;5.81;100.00;99338.81;5071272;28;20655;-60
2022/12/31 05:08:07;;;;;;;31.75;19.63;;;;;;;5.75;100.00;99331.31;5071358;28;20248;-60
2022/12/31 05:10:32;;;;;;;37.70;23.27;;;;;;;5.80;100.00;99327.75;5071321;28;20579;-61
2022/12/31 05:12:57;;;;;;;36.88;20.73;;;;;;;5.85;100.00;99338.69;5071063;28;20214;-61
2022/12/31 05:15:23;;;;;;;34.65;21.65;;;;;;;5.67;100.00;99295.66;5071092;28;20238;-61
2022/12/31 05:17:48;;;;;;;31.27;21.00;;;;;;;5.97;100.00;99347.69;5071458;28;20185;-61
2022/12/31 05:20:14;;;;;;;36.67;21.52;;;;;;;5.94;100.00;99355.50;5071377;28;20185;-61
2022/12/31 05:22:39;;;;;;;36.60;21.65;;;;;;;6.02;100.00;99392.03;5070956;28;20218;-61
2022/12/31 05:25:05;;;;;;;33.88;20.42;;;;;;;5.67;100.00;99317.91;5070985;28;20193;-61
2022/12/31 05:27:30;;;;;;;28.65;20.38;;;;;;;6.19;100.00;99390.53;5070842;28;20221;-61
2022/12/31 05:29:56;;;;;;;30.23;19.58;;;;;;;6.19;100.00;99395.66;5071318;28;20237;-61
2022/12/31 05:32:21;;;;;;;31.17;18.75;;;;;;;6.14;100.00;99395.03;5070600;28;20213;-60
2022/12/31 05:34:47;;;;;;;30.45;20.02;;;;;;;6.34;100.00;99413.13;5070596;28;20264;-59
2022/12/31 05:37:12;;;;;;;26.90;17.35;;;;;;;6.31;100.00;99400.41;5070802;28;20721;-58
2022/12/31 05:39:37;;;;;;;28.05;17.02;;;;;;;6.03;100.00;99350.88;5070563;28;20276;-58
2022/12/31 05:42:03;;;;;;;27.67;18.17;;;;;;;6.39;100.00;99418.94;5070538;28;20185;-59
2022/12/31 05:44:28;;;;;;;27.60;17.60;;;;;;;6.48;100.00;99418.59;5070436;28;20184;-59
2022/12/31 05:46:54;;;;;;;33.38;18.13;;;;;;;6.44;100.00;99409.34;5070333;28;20216;-59
2022/12/31 05:49:19;;;;;;;29.13;18.65;;;;;;;6.26;100.00;99366.31;5071158;28;20199;-59
2022/12/31 05:51:45;;;;;;;30.42;17.98;;;;;;;6.61;100.00;99419.84;5070672;28;20177;-59
2022/12/31 05:54:10;;;;;;;32.45;18.75;;;;;;;6.37;100.00;99414.75;5071951;28;20334;-59
2022/12/31 05:56:36;;;;;;;27.38;18.48;;;;;;;6.28;100.00;99377.38;5072912;28;20260;-59
2022/12/31 05:59:01;;;;;;;28.50;18.95;;;;;;;6.51;100.00;99413.38;5072269;28;20185;-59
2022/12/31 06:01:26;;;;;;;29.63;21.02;;;;;;;6.70;100.00;99434.94;5073084;28;20173;-60
2022/12/31 06:03:52;;;;;;;36.67;22.55;;;;;;;6.69;100.00;99429.84;5073020;28;20246;-59
2022/12/31 06:06:18;;;;;;;27.15;18.85;;;;;;;6.49;100.00;99397.16;5072426;28;20632;-59
2022/12/31 06:08:43;;;;;;;30.15;20.52;;;;;;;6.25;100.00;99356.09;5072780;28;20181;-60
2022/12/31 06:11:08;;;;;;;29.27;19.70;;;;;;;6.80;100.00;99446.56;5072495;28;20177;-59
2022/12/31 06:13:34;;;;;;;30.95;18.88;;;;;;;6.78;100.00;99421.78;5072452;28;20188;-59
2022/12/31 06:16:07;;;;;;;28.10;18.13;;;;;;;6.72;100.00;99402.31;5072359;28;20680;-60
2022/12/31 06:18:32;;;;;;;26.52;16.75;;;;;;;6.73;100.00;99406.53;5072691;28;20263;-59
2022/12/31 06:20:57;;;;;;;27.33;17.80;;;;;;;6.66;100.00;99397.38;5072866;28;20268;-59
2022/12/31 06:23:23;;;;;;;30.25;18.73;;;;;;;6.52;100.00;99358.47;5072348;28;20623;-59
2022/12/31 06:25:49;;;;;;;31.45;19.08;;;;;;;7.10;100.00;99445.41;5072216;28;20177;-59
2022/12/31 06:28:14;;;;;;;27.00;17.17;;;;;;;6.92;100.00;99412.66;5073064;28;20184;-59
2022/12/31 06:30:40;;;;;;;31.17;19.60;;;;;;;6.81;100.00;99389.09;5071894;28;20177;-59
2022/12/31 06:33:05;;;;;;;32.40;21.60;;;;;;;7.23;100.00;99445.78;5072966;28;20193;-59
2022/12/31 06:35:30;;;;;;;57.35;38.75;;;;;;;7.13;100.00;99429.03;5072268;28;20550;-60
2022/12/31 06:37:56;;;;;;;47.25;30.83;;;;;;;7.15;100.00;99453.81;5072808;28;20177;-59
2022/12/31 06:40:21;;;;;;;48.10;31.02;;;;;;;7.25;100.00;99464.56;5072153;28;20181;-59
2022/12/31 06:42:47;;;;;;;78.40;48.42;;;;;;;6.97;100.00;99413.34;5072367;28;20184;-59
2022/12/31 06:45:12;;;;;;;89.50;52.25;;;;;;;7.39;100.00;99477.78;5072169;28;20612;-59
2022/12/31 06:47:37;;;;;;;80.93;48.05;;;;;;;7.16;100.00;99434.88;5072066;28;20197;-59
2022/12/31 06:50:03;;;;;;;100.50;54.33;;;;;;;7.39;100.00;99468.28;5072059;28;20230;-59
2022/12/31 06:52:29;;;;;;;107.00;55.58;;;;;;;7.00;100.00;99402.09;5072068;28;20752;-59
2022/12/31 06:54:54;;;;;;;149.40;73.10;;;;;;;7.41;100.00;99470.81;5072535;28;20196;-59
2022/12/31 06:57:22;;;;;;;153.32;72.60;;;;;;;7.15;100.00;99428.06;5071975;28;20635;-59
2022/12/31 06:59:48;;;;;;;132.48;62.65;;;;;;;7.51;100.00;99482.44;5072024;28;20165;-59
2022/12/31 07:02:18;;;;;;;91.07;45.92;;;;;;;7.51;100.00;99472.97;5072693;28;20188;-59
2022/12/31 07:05:05;;;;;;;87.10;45.88;;;;;;;7.61;100.00;99494.03;5071934;28;20169;-60
2022/12/31 07:07:42;;;;;;;129.27;55.05;;;;;;;7.63;100.00;99493.09;5072628;28;20227;-59
2022/12/31 07:10:39;;;;;;;148.27;59.53;;;;;;;7.10;100.00;99399.09;5072471;28;20173;-60
2022/12/31 07:13:29;;;;;;;190.73;83.65;;;;;;;7.70;100.00;99504.81;5076550;28;20165;-59
2022/12/31 07:16:13;;;;;;;112.78;54.70;;;;;;;7.71;100.00;99514.25;5075773;28;20176;-59
2022/12/31 07:18:46;;;;;;;94.60;46.92;;;;;;;7.68;100.00;99516.94;5075771;28;20577;-59
2022/12/31 07:21:15;;;;;;;81.70;46.05;;;;;;;7.34;100.00;99459.09;5075515;28;20188;-59
2022/12/31 07:23:41;;;;;;;101.63;52.15;;;;;;;7.45;100.00;99473.22;5075978;28;20199;-59
2022/12/31 07:26:34;;;;;;;150.38;70.45;;;;;;;7.64;100.00;99524.84;5074993;28;20290;-59
2022/12/31 07:29:17;;;;;;;117.88;57.17;;;;;;;7.69;100.00;99523.75;5075127;28;20666;-61
2022/12/31 07:32:17;;;;;;;161.88;76.40;;;;;;;7.43;100.00;99464.72;5075381;28;20193;-61
2022/12/31 07:35:01;;;;;;;121.50;61.17;;;;;;;7.80;100.00;99513.88;5075895;28;20256;-61
2022/12/31 07:37:41;;;;;;;94.72;54.08;;;;;;;7.87;100.00;99511.88;5074932;28;20197;-61
2022/12/31 07:40:29;;;;;;;98.35;51.45;;;;;;;7.66;100.00;99469.78;5075274;28;20665;-61
2022/12/31 07:43:13;;;;;;;79.20;43.47;;;;;;;8.01;100.00;99518.16;5075073;28;20185;-59
2022/12/31 07:45:49;;;;;;;77.60;40.13;;;;;;;8.07;100.00;99517.91;5075636;28;20204;-58
2022/12/31 07:48:25;;;;;;;77.53;42.05;;;;;;;8.13;100.00;99512.50;5075360;28;20173;-59
2022/12/31 07:50:53;;;;;;;81.63;40.20;;;;;;;7.81;100.00;99464.00;5075604;28;20273;-59
2022/12/31 07:53:19;;;;;;;64.25;34.92;;;;;;;7.99;100.00;99476.13;5074935;28;20242;-59
2022/12/31 07:55:45;;;;;;;68.03;38.15;;;;;;;8.17;100.00;99526.97;5075204;28;20173;-60
2022/12/31 07:58:35;;;;;;;41.22;26.23;;;;;;;8.35;100.00;99541.69;5074950;28;20242;-59
2022/12/31 08:01:01;;;;;;;34.25;25.05;;;;;;;8.42;100.00;99543.13;5075384;28;20178;-60
2022/12/31 08:03:33;;;;;;;37.90;24.13;;;;;;;8.46;100.00;99543.81;5074809;28;20209;-59
2022/12/31 08:06:35;;;;;;;39.47;24.70;;;;;;;8.51;100.00;99536.72;5075301;28;20204;-60
2022/12/31 08:09:09;;;;;;;48.83;27.77;;;;;;;8.61;100.00;99544.00;5075176;28;20639;-59
2022/12/31 08:11:46;;;;;;;49.97;29.00;;;;;;;8.37;100.00;99492.63;5075108;28;20176;-59
2022/12/31 08:14:13;;;;;;;57.70;33.30;;;;;;;8.50;100.00;99506.69;5075217;28;20635;-59
2022/12/31 08:16:39;;;;;;;53.65;31.90;;;;;;;8.79;100.00;99540.63;5074721;28;20212;-59
2022/12/31 08:19:05;;;;;;;51.88;29.42;;;;;;;8.52;99.59;99490.25;5074503;28;20205;-59
2022/12/31 08:21:47;;;;;;;45.90;27.50;;;;;;;8.87;100.00;99536.00;5074448;28;20188;-59
2022/12/31 08:24:21;;;;;;;55.83;30.65;;;;;;;8.66;99.95;99485.31;5074652;28;20757;-59
2022/12/31 08:26:58;;;;;;;67.22;33.88;;;;;;;9.06;98.94;99542.00;5074679;28;20193;-59
2022/12/31 08:29:29;;;;;;;68.13;35.17;;;;;;;9.13;98.98;99542.56;5074323;28;20173;-59
2022/12/31 08:32:09;;;;;;;63.50;32.67;;;;;;;9.22;97.69;99543.00;5075059;28;20234;-59
2022/12/31 08:34:48;;;;;;;58.60;31.88;;;;;;;9.40;95.82;99554.22;5074800;28;20248;-59
2022/12/31 08:37:38;;;;;;;53.70;31.83;;;;;;;9.50;96.54;99558.09;5074428;28;20177;-59
2022/12/31 08:40:21;;;;;;;60.95;32.92;;;;;;;9.43;97.23;99562.69;5074592;28;20252;-60
2022/12/31 08:42:52;;;;;;;62.50;34.42;;;;;;;8.88;98.82;99467.97;5074418;28;20165;-59
2022/12/31 08:45:32;;;;;;;52.65;31.27;;;;;;;9.44;100.00;99561.75;5074549;28;20196;-59
2022/12/31 08:48:04;;;;;;;59.22;32.00;;;;;;;9.11;100.00;99503.91;5074422;28;20197;-59
2022/12/31 08:50:30;;;;;;;52.03;29.95;;;;;;;9.52;100.00;99564.84;5074150;28;20173;-59
2022/12/31 08:52:55;;;;;;;52.88;29.35;;;;;;;9.62;99.33;99562.69;5073758;28;20669;-61
2022/12/31 08:55:21;;;;;;;53.95;27.98;;;;;;;9.51;97.52;99532.19;5073835;28;20169;-60
2022/12/31 08:58:11;;;;;;;49.45;28.77;;;;;;;9.73;96.97;99567.28;5074005;28;20189;-60
2022/12/31 09:00:37;;;;;;;46.45;25.80;;;;;;;9.72;96.32;99551.84;5073638;28;20181;-60
2022/12/31 09:03:39;;;;;;;46.25;26.95;;;;;;;9.85;96.41;99569.28;5112213;28;20188;-61
2022/12/31 09:06:25;;;;;;;44.65;26.85;;;;;;;9.92;95.54;99562.09;5112527;28;20248;-60
2022/12/31 09:08:57;;;;;;;50.15;33.30;;;;;;;9.99;94.77;99561.69;5112387;28;20296;-60
2022/12/31 09:11:44;;;;;;;46.60;26.08;;;;;;;10.07;93.27;99560.56;5112529;28;20233;-60
2022/12/31 09:15:06;;;;;;;40.78;25.70;;;;;;;10.15;91.50;99556.69;5111674;28;20171;-61
2022/12/31 09:17:49;;;;;;;46.10;25.95;;;;;;;9.87;90.99;99507.19;5071086;28;20667;-60
2022/12/31 09:20:17;;;;;;;48.30;28.30;;;;;;;10.20;90.66;99559.84;5070939;28;20682;-60
2022/12/31 09:22:43;;;;;;;51.95;29.90;;;;;;;10.23;90.66;99546.78;5071269;28;20185;-60
2022/12/31 09:25:16;;;;;;;49.78;28.65;;;;;;;10.12;90.54;99515.44;5070905;28;20181;-60
2022/12/31 09:27:47;;;;;;;47.83;27.20;;;;;;;10.37;90.65;99549.53;5071134;28;20235;-60
2022/12/31 09:30:15;;;;;;;46.55;28.02;;;;;;;10.43;89.65;99544.03;5071370;28;20617;-60
2022/12/31 09:33:09;;;;;;;49.85;29.15;;;;;;;10.49;89.41;99541.16;5070662;28;20663;-60
2022/12/31 09:35:55;;;;;;;55.90;27.48;;;;;;;10.50;88.75;99541.06;5051102;28;20229;-60
2022/12/31 09:38:36;;;;;;;52.72;30.17;;;;;;;10.21;89.38;99486.56;5051505;28;20173;-60
2022/12/31 09:41:15;;;;;;;57.90;30.42;;;;;;;10.55;89.44;99523.56;5050650;28;20698;-60
2022/12/31 09:44:01;;;;;;;54.83;29.13;;;;;;;10.61;89.61;99518.09;5050615;28;20177;-60
2022/12/31 09:46:42;;;;;;;50.67;29.50;;;;;;;10.70;89.03;99512.44;5051262;28;20653;-60
2022/12/31 09:49:28;;;;;;;52.22;28.90;;;;;;;10.74;88.08;99507.94;5072674;28;20184;-60
2022/12/31 09:52:12;;;;;;;56.40;29.02;;;;;;;10.79;88.55;99503.38;5073211;28;20600;-60
2022/12/31 09:55:24;;;;;;;46.10;27.15;;;;;;;10.83;88.31;99500.53;5073168;28;20180;-59
2022/12/31 09:58:20;;;;;;;51.55;29.52;;;;;;;10.92;87.85;99487.09;5072377;28;20205;-59
2022/12/31 10:01:00;;;;;;;49.03;29.13;;;;;;;10.99;87.17;99488.47;5072923;28;20200;-59
2022/12/31 10:03:46;;;;;;;54.88;29.90;;;;;;;10.79;87.48;99430.88;5072593;28;20264;-59
2022/12/31 10:06:43;;;;;;;52.92;29.25;;;;;;;11.18;85.93;99485.69;5072494;28;20196;-60
2022/12/31 10:09:30;;;;;;;55.65;29.70;;;;;;;11.22;85.52;99484.63;5073386;28;20173;-60
2022/12/31 10:12:26;;;;;;;50.15;28.00;;;;;;;11.27;84.90;99483.44;5072760;28;20165;-59
2022/12/31 10:15:16;;;;;;;47.28;27.13;;;;;;;11.32;84.93;99488.41;5072143;28;20226;-59
2022/12/31 10:18:16;;;;;;;50.28;26.63;;;;;;;11.38;84.46;99480.28;5073077;28;20161;-60
2022/12/31 10:20:59;;;;;;;53.03;30.52;;;;;;;11.43;83.75;99479.09;5070154;28;20207;-59
2022/12/31 10:24:03;;;;;;;54.13;29.98;;;;;;;11.01;83.74;99397.72;5070678;28;20341;-61
2022/12/31 10:26:47;;;;;;;46.85;27.35;;;;;;;11.53;83.25;99469.91;5062251;28;20303;-61
2022/12/31 10:29:40;;;;;;;51.00;26.38;;;;;;;11.57;83.50;99471.44;5069951;28;20207;-60
2022/12/31 10:32:16;;;;;;;44.08;27.80;;;;;;;11.63;82.90;99470.25;5069955;28;20207;-60
2022/12/31 10:34:41;;;;;;;48.03;28.13;;;;;;;11.66;82.54;99475.25;5070170;28;20183;-60
2022/12/31 10:37:12;;;;;;;51.65;28.63;;;;;;;11.66;82.06;99468.34;5070466;28;20205;-60
2022/12/31 10:39:52;;;;;;;50.30;29.15;;;;;;;11.73;80.80;99461.06;5070645;28;20185;-60
2022/12/31 10:42:20;;;;;;;50.90;29.02;;;;;;;11.73;81.61;99463.66;5069882;28;20181;-60
2022/12/31 10:45:04;;;;;;;48.63;30.90;;;;;;;11.77;82.26;99463.38;5070377;28;20295;-60
2022/12/31 10:47:51;;;;;;;51.42;32.50;;;;;;;11.87;81.53;99458.50;5074154;28;20257;-60
2022/12/31 10:50:35;;;;;;;50.90;31.52;;;;;;;11.95;81.99;99453.69;5074356;28;20208;-60
2022/12/31 10:53:00;;;;;;;53.50;31.77;;;;;;;11.98;82.08;99454.38;5074052;28;20638;-60
2022/12/31 10:55:43;;;;;;;49.50;28.60;;;;;;;12.09;81.78;99451.16;5073691;28;20181;-60
2022/12/31 10:58:15;;;;;;;48.38;28.95;;;;;;;12.16;81.74;99445.53;5075557;28;20189;-61
2022/12/31 11:01:27;;;;;;;46.28;27.92;;;;;;;12.23;81.55;99446.00;5075936;28;20667;-60
2022/12/31 11:04:22;;;;;;;45.33;28.50;;;;;;;12.33;80.66;99445.38;5075643;28;20169;-60
2022/12/31 11:07:21;;;;;;;48.33;27.30;;;;;;;12.11;80.96;99397.41;5076389;28;20742;-61
2022/12/31 11:10:12;;;;;;;44.22;27.23;;;;;;;12.37;81.65;99444.25;5075813;28;20170;-61
2022/12/31 11:12:46;;;;;;;47.13;25.88;;;;;;;12.35;82.54;99440.06;5074062;28;20234;-60
2022/12/31 11:15:41;;;;;;;39.97;26.08;;;;;;;12.33;83.29;99428.97;5073538;28;20663;-60
2022/12/31 11:18:14;;;;;;;39.30;24.90;;;;;;;12.38;83.33;99427.75;5068057;28;20199;-60
2022/12/31 11:20:45;;;;;;;40.72;23.85;;;;;;;12.39;83.81;99429.44;5073280;28;20691;-60
2022/12/31 11:23:19;;;;;;;32.35;21.88;;;;;;;12.40;84.20;99415.53;5073932;28;20200;-61
2022/12/31 11:26:09;;;;;;;41.53;22.98;;;;;;;12.43;84.07;99430.09;5073124;28;20222;-60
2022/12/31 11:28:49;;;;;;;35.58;23.98;;;;;;;12.44;84.46;99414.41;5073696;28;20176;-60
2022/12/31 11:31:30;;;;;;;33.25;23.25;;;;;;;12.19;83.71;99380.47;5073038;28;20295;-60
2022/12/31 11:34:13;;;;;;;41.65;23.95;;;;;;;12.44;84.33;99419.59;5073535;28;20208;-61
2022/12/31 11:36:50;;;;;;;63.05;32.92;;;;;;;12.48;84.96;99420.28;5072970;28;20247;-60
2022/12/31 11:39:31;;;;;;;46.75;26.38;;;;;;;12.45;85.10;99415.25;5073172;28;20177;-61
2022/12/31 11:42:13;;;;;;;41.35;26.98;;;;;;;12.40;85.75;99405.16;5073463;28;20177;-60
2022/12/31 11:44:50;;;;;;;39.22;24.67;;;;;;;12.41;86.30;99409.41;5073373;28;20173;-60
2022/12/31 11:47:27;;;;;;;34.15;22.88;;;;;;;12.43;85.50;99411.94;5072692;28;20338;-61
2022/12/31 11:50:16;;;;;;;37.45;23.08;;;;;;;12.13;86.28;99364.47;5074350;28;20655;-61
2022/12/31 11:53:23;;;;;;;37.92;24.02;;;;;;;12.34;86.31;99407.28;5075620;28;20174;-60
2022/12/31 11:56:11;;;;;;;36.63;23.65;;;;;;;12.27;87.06;99390.41;5072627;28;20191;-60
2022/12/31 11:58:39;;;;;;;35.03;22.90;;;;;;;12.02;86.66;99351.28;5032659;28;20214;-60